createdAt,value
2017-08-08T00:00:28.468Z,50.20
2017-08-08T00:02:55.375Z,50.70
2017-08-08T00:05:21.557Z,50.40
2017-08-08T00:07:47.731Z,50.60
2017-08-08T00:10:14.603Z,50.60
2017-08-08T00:12:40.780Z,50.50
2017-08-08T00:15:06.939Z,50.30
2017-08-08T00:17:33.091Z,50.50
2017-08-08T00:19:59.996Z,50.70
2017-08-08T00:22:26.213Z,50.60
2017-08-08T00:24:52.362Z,50.80
2017-08-08T00:27:18.547Z,51.00
2017-08-08T00:29:44.756Z,51.00
2017-08-08T00:32:10.923Z,50.90
2017-08-08T00:34:37.088Z,50.90
2017-08-08T00:37:03.243Z,51.00
2017-08-08T00:39:29.427Z,50.70
2017-08-08T00:41:55.695Z,50.90
2017-08-08T00:44:21.892Z,50.80
2017-08-08T00:46:48.064Z,51.00
2017-08-08T00:49:14.247Z,51.30
2017-08-08T00:51:40.418Z,51.10
2017-08-08T00:54:06.613Z,52.00
2017-08-08T00:56:32.769Z,51.10
2017-08-08T00:58:58.978Z,51.40
2017-08-08T01:01:25.145Z,51.50
2017-08-08T01:03:51.331Z,51.70
2017-08-08T01:06:17.498Z,51.80
2017-08-08T01:08:43.710Z,51.70
2017-08-08T01:11:09.875Z,51.90
2017-08-08T01:13:36.053Z,51.80
2017-08-08T01:16:02.220Z,51.90
2017-08-08T01:18:29.119Z,52.00
2017-08-08T01:20:55.331Z,52.00
2017-08-08T01:23:21.500Z,52.20
2017-08-08T01:25:47.663Z,52.30
2017-08-08T01:28:13.816Z,52.30
2017-08-08T01:30:39.999Z,52.50
2017-08-08T01:33:06.150Z,52.40
2017-08-08T01:35:32.319Z,52.60
2017-08-08T01:37:59.237Z,52.60
2017-08-08T01:40:25.445Z,52.60
2017-08-08T01:42:51.597Z,52.80
2017-08-08T01:45:17.794Z,52.80
2017-08-08T01:47:43.947Z,52.70
2017-08-08T01:50:10.168Z,52.80
2017-08-08T01:52:36.334Z,52.90
2017-08-08T01:55:03.239Z,53.00
2017-08-08T01:57:29.407Z,52.90
2017-08-08T01:59:55.594Z,53.20
2017-08-08T02:02:21.756Z,53.20
2017-08-08T02:04:47.914Z,53.00
2017-08-08T02:07:14.080Z,53.10
2017-08-08T02:09:40.300Z,53.10
2017-08-08T02:12:06.447Z,53.40
2017-08-08T02:14:33.335Z,53.40
2017-08-08T02:16:59.507Z,53.30
2017-08-08T02:19:25.652Z,53.30
2017-08-08T02:21:51.838Z,53.70
2017-08-08T02:24:18.007Z,53.70
2017-08-08T02:26:44.186Z,53.60
2017-08-08T02:29:10.365Z,53.60
2017-08-08T02:31:36.561Z,53.50
2017-08-08T02:34:03.451Z,53.30
2017-08-08T02:36:29.624Z,53.30
2017-08-08T02:38:55.779Z,53.50
2017-08-08T02:41:21.974Z,53.40
2017-08-08T02:43:48.135Z,53.40
2017-08-08T02:46:14.300Z,53.70
2017-08-08T02:48:40.439Z,53.60
2017-08-08T02:51:06.596Z,53.80
2017-08-08T02:53:32.731Z,53.90
2017-08-08T02:55:58.939Z,53.50
2017-08-08T02:58:25.079Z,53.30
2017-08-08T03:00:51.262Z,53.50
2017-08-08T03:03:17.467Z,53.50
2017-08-08T03:05:43.613Z,53.70
2017-08-08T03:08:09.763Z,53.80
2017-08-08T03:10:36.664Z,53.60
2017-08-08T03:13:03.848Z,53.60
2017-08-08T03:15:29.998Z,53.40
2017-08-08T03:17:56.183Z,53.50
2017-08-08T03:20:22.343Z,53.40
2017-08-08T03:22:49.263Z,54.10
2017-08-08T03:25:15.403Z,53.40
2017-08-08T03:27:41.624Z,53.50
2017-08-08T03:30:07.780Z,53.50
2017-08-08T03:32:33.954Z,53.50
2017-08-08T03:35:00.090Z,53.50
2017-08-08T03:37:26.319Z,53.40
2017-08-08T03:39:52.460Z,53.40
2017-08-08T03:42:18.627Z,53.40
2017-08-08T03:44:44.799Z,53.30
2017-08-08T03:47:10.968Z,53.70
2017-08-08T03:49:37.131Z,53.90
2017-08-08T03:52:03.299Z,53.80
2017-08-08T03:54:29.449Z,54.00
2017-08-08T03:56:55.594Z,53.30
2017-08-08T03:59:21.875Z,53.40
2017-08-08T04:01:48.099Z,53.40
2017-08-08T04:04:14.287Z,53.30
2017-08-08T04:06:40.411Z,53.20
2017-08-08T04:09:06.567Z,53.70
2017-08-08T04:11:32.724Z,53.50
2017-08-08T04:13:58.866Z,53.20
2017-08-08T04:16:25.037Z,53.20
2017-08-08T04:18:51.195Z,53.30
2017-08-08T04:21:17.334Z,53.30
2017-08-08T04:23:43.534Z,53.60
2017-08-08T04:26:09.698Z,53.70
2017-08-08T04:28:35.893Z,53.50
2017-08-08T04:31:02.051Z,53.50
2017-08-08T04:33:28.188Z,54.40
2017-08-08T04:35:54.359Z,53.30
2017-08-08T04:38:20.522Z,53.60
2017-08-08T04:40:46.646Z,53.50
2017-08-08T04:43:12.811Z,53.30
2017-08-08T04:45:38.979Z,53.50
2017-08-08T04:48:05.103Z,53.40
2017-08-08T04:50:31.238Z,53.30
2017-08-08T04:52:57.362Z,53.40
2017-08-08T04:55:23.517Z,53.10
2017-08-08T04:57:49.668Z,53.30
2017-08-08T05:00:15.845Z,53.40
2017-08-08T05:02:42.019Z,53.20
2017-08-08T05:05:08.177Z,52.90
2017-08-08T05:07:34.294Z,52.90
2017-08-08T05:10:00.430Z,53.00
2017-08-08T05:12:26.570Z,52.70
2017-08-08T05:14:52.707Z,52.50
2017-08-08T05:17:18.831Z,52.40
2017-08-08T05:19:45.072Z,52.60
2017-08-08T05:22:11.236Z,52.60
2017-08-08T05:24:37.404Z,52.40
2017-08-08T05:27:03.536Z,52.40
2017-08-08T05:29:29.804Z,52.50
2017-08-08T05:31:56.003Z,52.40
2017-08-08T05:34:22.148Z,52.30
2017-08-08T05:36:48.315Z,51.70
2017-08-08T05:39:14.444Z,51.60
2017-08-08T05:41:40.592Z,51.60
2017-08-08T05:44:06.724Z,51.10
2017-08-08T05:46:32.897Z,51.50
2017-08-08T05:48:59.035Z,51.30
2017-08-08T05:51:25.190Z,51.00
2017-08-08T05:53:51.319Z,50.40
2017-08-08T05:56:17.468Z,51.10
2017-08-08T05:58:43.644Z,49.20
2017-08-08T06:01:09.820Z,49.90
2017-08-08T06:03:35.971Z,49.90
2017-08-08T06:06:02.103Z,49.40
2017-08-08T06:08:28.283Z,49.50
2017-08-08T06:10:54.444Z,49.50
2017-08-08T06:13:20.579Z,49.50
2017-08-08T06:15:46.792Z,49.50
2017-08-08T06:18:12.923Z,49.30
2017-08-08T06:20:39.091Z,49.70
2017-08-08T06:23:05.261Z,49.20
2017-08-08T06:25:31.427Z,48.80
2017-08-08T06:27:58.404Z,48.10
2017-08-08T06:30:24.543Z,48.80
2017-08-08T06:32:50.705Z,48.60
2017-08-08T06:35:16.878Z,48.10
2017-08-08T06:37:43.149Z,48.50
2017-08-08T06:40:09.580Z,48.10
2017-08-08T06:42:36.048Z,48.10
2017-08-08T06:45:02.540Z,47.80
2017-08-08T06:47:28.837Z,48.50
2017-08-08T06:49:55.007Z,47.90
2017-08-08T06:52:22.378Z,48.50
2017-08-08T06:54:48.558Z,48.10
2017-08-08T06:57:14.724Z,48.00
2017-08-08T06:59:40.975Z,47.80
2017-08-08T07:02:07.139Z,47.70
2017-08-08T07:04:33.281Z,47.50
2017-08-08T07:07:00.319Z,47.20
2017-08-08T07:09:26.465Z,48.40
2017-08-08T07:11:55.828Z,46.60
2017-08-08T07:14:22.007Z,46.90
2017-08-08T07:16:48.195Z,47.10
2017-08-08T07:19:14.398Z,47.50
2017-08-08T07:21:40.551Z,47.60
2017-08-08T07:24:07.112Z,47.30
2017-08-08T07:26:33.411Z,47.80
2017-08-08T07:29:07.890Z,47.40
2017-08-08T07:31:34.055Z,47.50
2017-08-08T07:34:01.046Z,46.40
2017-08-08T07:36:27.225Z,47.00
2017-08-08T07:38:53.396Z,46.90
2017-08-08T07:41:19.563Z,46.50
2017-08-08T07:43:45.716Z,46.20
2017-08-08T07:46:11.891Z,46.10
2017-08-08T07:48:38.063Z,46.00
2017-08-08T07:51:04.267Z,46.20
2017-08-08T07:53:32.561Z,46.00
2017-08-08T07:55:58.849Z,46.20
2017-08-08T07:58:24.995Z,46.20
2017-08-08T08:00:51.212Z,45.90
2017-08-08T08:03:17.404Z,45.90
2017-08-08T08:05:45.795Z,45.00
2017-08-08T08:08:11.947Z,44.30
2017-08-08T08:10:38.125Z,45.00
2017-08-08T08:13:04.304Z,44.20
2017-08-08T08:15:30.511Z,44.20
2017-08-08T08:17:56.671Z,43.50
2017-08-08T08:20:22.871Z,42.90
2017-08-08T08:22:49.039Z,43.60
2017-08-08T08:25:15.208Z,42.80
2017-08-08T08:27:41.627Z,42.90
2017-08-08T08:30:10.201Z,43.10
2017-08-08T08:32:36.367Z,42.10
2017-08-08T08:35:02.519Z,41.80
2017-08-08T08:37:28.693Z,41.80
2017-08-08T08:39:54.957Z,42.00
2017-08-08T08:42:21.263Z,42.10
2017-08-08T08:44:47.459Z,41.80
2017-08-08T08:47:13.728Z,42.10
2017-08-08T08:49:39.883Z,42.10
2017-08-08T08:52:06.092Z,42.40
2017-08-08T08:54:32.266Z,41.50
2017-08-08T08:56:58.439Z,41.50
2017-08-08T08:59:24.607Z,41.40
2017-08-08T09:01:50.779Z,41.00
2017-08-08T09:04:16.971Z,40.70
2017-08-08T09:06:43.321Z,40.80
2017-08-08T09:09:09.471Z,41.00
2017-08-08T09:11:36.226Z,41.40
2017-08-08T09:14:02.439Z,40.60
2017-08-08T09:16:28.787Z,41.20
2017-08-08T09:18:54.921Z,41.20
2017-08-08T09:21:21.104Z,41.20
2017-08-08T09:23:47.271Z,41.20
2017-08-08T09:26:13.440Z,41.50
2017-08-08T09:28:39.655Z,41.90
2017-08-08T09:31:05.924Z,42.40
2017-08-08T09:33:32.071Z,42.70
2017-08-08T09:35:58.228Z,43.00
2017-08-08T09:38:24.379Z,42.30
2017-08-08T09:40:50.555Z,42.40
2017-08-08T09:43:16.708Z,42.80
2017-08-08T09:45:42.854Z,42.60
2017-08-08T09:48:09.084Z,43.40
2017-08-08T09:50:35.229Z,43.40
2017-08-08T09:53:01.408Z,43.20
2017-08-08T09:55:27.572Z,44.20
2017-08-08T09:57:53.752Z,43.30
2017-08-08T10:00:19.881Z,43.70
2017-08-08T10:02:46.093Z,44.10
2017-08-08T10:05:12.256Z,44.60
2017-08-08T10:07:38.407Z,44.50
2017-08-08T10:10:04.544Z,45.00
2017-08-08T10:12:30.702Z,45.50
2017-08-08T10:14:56.843Z,45.70
2017-08-08T10:17:23.055Z,45.30
2017-08-08T10:19:49.268Z,45.30
2017-08-08T10:22:15.458Z,46.10
2017-08-08T10:24:41.737Z,46.00
2017-08-08T10:27:07.891Z,45.80
2017-08-08T10:29:34.283Z,46.70
2017-08-08T10:32:00.404Z,45.60
2017-08-08T10:34:26.560Z,45.90
2017-08-08T10:36:52.711Z,45.40
2017-08-08T10:39:18.866Z,46.10
2017-08-08T10:41:45.004Z,46.00
2017-08-08T10:44:11.141Z,46.50
2017-08-08T10:46:37.337Z,47.70
2017-08-08T10:49:03.520Z,46.60
2017-08-08T10:51:29.647Z,46.40
2017-08-08T10:53:55.843Z,47.20
2017-08-08T10:56:22.016Z,47.20
2017-08-08T10:58:48.184Z,47.30
2017-08-08T11:01:14.357Z,47.90
2017-08-08T11:03:40.546Z,47.20
2017-08-08T11:06:06.709Z,46.40
2017-08-08T11:08:32.861Z,45.80
2017-08-08T11:10:58.983Z,45.60
2017-08-08T11:13:25.180Z,45.50
2017-08-08T11:15:51.311Z,45.10
2017-08-08T11:18:17.487Z,45.30
2017-08-08T11:20:43.621Z,44.30
2017-08-08T11:23:09.829Z,44.30
2017-08-08T11:25:35.958Z,44.50
2017-08-08T11:28:02.122Z,44.20
2017-08-08T11:30:28.497Z,44.10
2017-08-08T11:32:54.780Z,44.40
2017-08-08T11:35:20.930Z,45.00
2017-08-08T11:37:47.068Z,45.40
2017-08-08T11:40:13.246Z,45.90
2017-08-08T11:42:39.552Z,46.00
2017-08-08T11:45:05.727Z,46.00
2017-08-08T11:47:31.880Z,46.20
2017-08-08T11:49:58.540Z,46.10
2017-08-08T11:52:24.875Z,46.20
2017-08-08T11:54:51.038Z,46.50
2017-08-08T11:57:17.492Z,46.40
2017-08-08T11:59:43.680Z,45.80
2017-08-08T12:02:09.815Z,46.30
2017-08-08T12:04:36.103Z,46.20
2017-08-08T12:07:02.219Z,46.40
2017-08-08T12:09:28.459Z,46.40
2017-08-08T12:11:54.623Z,46.70
2017-08-08T12:14:20.911Z,46.90
2017-08-08T12:16:47.063Z,47.00
2017-08-08T12:19:13.251Z,47.00
2017-08-08T12:21:39.580Z,46.80
2017-08-08T12:24:06.071Z,47.50
2017-08-08T12:26:32.248Z,47.50
2017-08-08T12:28:58.402Z,47.10
2017-08-08T12:31:24.584Z,47.50
2017-08-08T12:33:50.735Z,47.60
2017-08-08T12:36:17.276Z,47.40
2017-08-08T12:38:43.541Z,47.50
2017-08-08T12:41:09.787Z,47.40
2017-08-08T12:43:35.919Z,47.50
2017-08-08T12:46:02.223Z,47.60
2017-08-08T12:48:28.423Z,46.90
2017-08-08T12:50:55.045Z,47.10
2017-08-08T12:53:21.264Z,46.80
2017-08-08T12:55:47.616Z,45.90
2017-08-08T12:58:13.932Z,45.10
2017-08-08T13:00:40.111Z,45.10
2017-08-08T13:03:06.245Z,44.30
2017-08-08T13:05:32.419Z,44.50
2017-08-08T13:07:58.572Z,44.10
2017-08-08T13:10:24.851Z,44.50
2017-08-08T13:12:51.011Z,43.90
2017-08-08T13:15:17.321Z,42.80
2017-08-08T13:17:43.522Z,42.50
2017-08-08T13:20:09.688Z,42.40
2017-08-08T13:22:36.900Z,41.30
2017-08-08T13:25:03.043Z,41.00
2017-08-08T13:27:29.283Z,40.20
2017-08-08T13:29:56.188Z,39.80
2017-08-08T13:32:22.593Z,39.80
2017-08-08T13:34:48.751Z,39.20
2017-08-08T13:37:14.931Z,39.70
2017-08-08T13:39:41.133Z,38.60
2017-08-08T13:42:07.324Z,39.30
2017-08-08T13:44:33.502Z,38.00
2017-08-08T13:47:00.415Z,38.10
2017-08-08T13:49:26.565Z,38.40
2017-08-08T13:51:52.726Z,38.50
2017-08-08T13:54:18.892Z,38.70
2017-08-08T13:56:45.055Z,39.50
2017-08-08T13:59:11.184Z,39.80
2017-08-08T14:01:37.355Z,40.60
2017-08-08T14:04:03.548Z,40.80
2017-08-08T14:06:29.735Z,41.40
2017-08-08T14:08:55.896Z,42.20
2017-08-08T14:11:22.016Z,42.50
2017-08-08T14:13:48.167Z,42.90
2017-08-08T14:16:14.319Z,43.40
2017-08-08T14:18:40.459Z,43.80
2017-08-08T14:21:06.652Z,44.10
2017-08-08T14:23:32.926Z,44.50
2017-08-08T14:25:59.075Z,44.40
2017-08-08T14:28:25.259Z,44.40
2017-08-08T14:30:51.390Z,44.40
2017-08-08T14:33:17.612Z,44.40
2017-08-08T14:35:43.739Z,44.50
2017-08-08T14:38:09.911Z,43.80
2017-08-08T14:40:36.078Z,43.70
2017-08-08T14:43:02.209Z,43.70
2017-08-08T14:45:28.339Z,43.10
2017-08-08T14:47:54.463Z,43.90
2017-08-08T14:50:20.623Z,43.80
2017-08-08T14:52:46.772Z,44.30
2017-08-08T14:55:12.963Z,45.20
2017-08-08T14:57:39.107Z,45.80
2017-08-08T15:00:05.294Z,45.50
2017-08-08T15:02:31.430Z,45.60
2017-08-08T15:04:57.579Z,45.80
2017-08-08T15:07:23.739Z,45.20
2017-08-08T15:09:49.920Z,44.90
2017-08-08T15:12:16.046Z,44.40
2017-08-08T15:14:42.235Z,44.50
2017-08-08T15:17:08.363Z,44.60
2017-08-08T15:19:34.535Z,44.40
2017-08-08T15:22:00.713Z,44.40
2017-08-08T15:24:26.959Z,44.40
2017-08-08T15:26:53.071Z,44.40
2017-08-08T15:29:19.211Z,43.70
2017-08-08T15:31:45.454Z,43.10
2017-08-08T15:34:11.608Z,43.20
2017-08-08T15:36:37.754Z,43.30
2017-08-08T15:39:03.902Z,44.00
2017-08-08T15:41:30.047Z,43.30
2017-08-08T15:43:56.197Z,43.10
2017-08-08T15:46:22.332Z,43.00
2017-08-08T15:48:48.450Z,43.40
2017-08-08T15:51:14.579Z,43.10
2017-08-08T15:53:40.726Z,43.30
2017-08-08T15:56:06.883Z,43.40
2017-08-08T15:58:33.026Z,43.10
2017-08-08T16:00:59.188Z,42.50
2017-08-08T16:03:25.354Z,42.30
2017-08-08T16:05:51.487Z,41.80
2017-08-08T16:08:17.599Z,41.70
2017-08-08T16:10:44.762Z,41.40
2017-08-08T16:13:10.899Z,41.20
2017-08-08T16:15:37.079Z,41.10
2017-08-08T16:18:03.204Z,41.00
2017-08-08T16:20:29.362Z,41.10
2017-08-08T16:22:55.519Z,41.20
2017-08-08T16:25:21.663Z,41.30
2017-08-08T16:27:47.818Z,41.50
2017-08-08T16:30:13.952Z,40.80
2017-08-08T16:32:40.102Z,40.70
2017-08-08T16:35:06.243Z,39.80
2017-08-08T16:37:32.409Z,39.40
2017-08-08T16:39:58.530Z,39.30
2017-08-08T16:42:24.670Z,39.50
2017-08-08T16:44:50.815Z,39.60
2017-08-08T16:47:16.992Z,39.40
2017-08-08T16:49:43.114Z,39.50
2017-08-08T16:52:09.252Z,39.60
2017-08-08T16:54:35.378Z,39.60
2017-08-08T16:57:01.545Z,39.30
2017-08-08T16:59:27.703Z,40.10
2017-08-08T17:01:53.839Z,39.50
2017-08-08T17:04:19.960Z,39.70
2017-08-08T17:06:46.172Z,39.70
2017-08-08T17:09:12.359Z,39.70
2017-08-08T17:11:38.519Z,39.50
2017-08-08T17:14:04.694Z,38.90
2017-08-08T17:16:30.835Z,38.70
2017-08-08T17:18:57.014Z,38.10
2017-08-08T17:21:23.160Z,38.00
2017-08-08T17:23:49.319Z,38.00
2017-08-08T17:26:15.447Z,38.40
2017-08-08T17:28:41.637Z,37.70
2017-08-08T17:31:07.779Z,37.90
2017-08-08T17:33:33.928Z,38.10
2017-08-08T17:36:00.083Z,37.60
2017-08-08T17:38:26.243Z,38.20
2017-08-08T17:40:52.364Z,38.60
2017-08-08T17:43:18.502Z,38.70
2017-08-08T17:45:44.659Z,39.00
2017-08-08T17:48:10.827Z,39.00
2017-08-08T17:50:36.967Z,40.20
2017-08-08T17:53:03.162Z,39.70
2017-08-08T17:55:29.282Z,39.50
2017-08-08T17:57:55.407Z,39.70
2017-08-08T18:00:21.538Z,39.80
2017-08-08T18:02:47.778Z,39.80
2017-08-08T18:05:14.222Z,40.00
2017-08-08T18:07:40.391Z,40.00
2017-08-08T18:10:06.536Z,39.50
2017-08-08T18:12:32.668Z,39.40
2017-08-08T18:14:58.795Z,39.10
2017-08-08T18:17:24.943Z,39.00
2017-08-08T18:19:51.113Z,39.00
2017-08-08T18:22:17.276Z,39.00
2017-08-08T18:24:43.406Z,38.90
2017-08-08T18:27:09.531Z,38.90
2017-08-08T18:29:35.664Z,38.80
2017-08-08T18:32:01.819Z,39.10
2017-08-08T18:34:27.947Z,39.00
2017-08-08T18:36:54.069Z,38.90
2017-08-08T18:39:20.243Z,38.90
2017-08-08T18:41:46.354Z,38.80
2017-08-08T18:44:12.499Z,38.80
2017-08-08T18:46:38.647Z,39.20
2017-08-08T18:49:04.808Z,39.10
2017-08-08T18:51:30.954Z,39.00
2017-08-08T18:53:57.090Z,39.20
2017-08-08T18:56:23.227Z,39.20
2017-08-08T18:58:49.350Z,39.20
2017-08-08T19:01:15.494Z,39.40
2017-08-08T19:03:41.655Z,39.40
2017-08-08T19:06:07.846Z,39.30
2017-08-08T19:08:33.981Z,39.30
2017-08-08T19:11:00.135Z,39.50
2017-08-08T19:13:26.257Z,39.60
2017-08-08T19:15:52.423Z,39.80
2017-08-08T19:18:18.559Z,39.70
2017-08-08T19:20:44.674Z,39.70
2017-08-08T19:23:10.801Z,40.00
2017-08-08T19:25:36.946Z,40.10
2017-08-08T19:28:03.099Z,40.10
2017-08-08T19:30:29.210Z,40.00
2017-08-08T19:32:55.342Z,40.30
2017-08-08T19:35:21.482Z,40.30
2017-08-08T19:37:47.632Z,40.50
2017-08-08T19:40:13.774Z,40.80
2017-08-08T19:42:39.931Z,40.70
2017-08-08T19:45:06.041Z,40.90
2017-08-08T19:47:32.163Z,41.20
2017-08-08T19:49:58.335Z,41.20
2017-08-08T19:52:24.475Z,41.40
2017-08-08T19:54:50.602Z,41.50
2017-08-08T19:57:16.768Z,41.60
2017-08-08T19:59:42.914Z,41.40
2017-08-08T20:02:09.030Z,41.40
2017-08-08T20:04:35.177Z,41.40
2017-08-08T20:07:01.335Z,41.40
2017-08-08T20:09:27.504Z,41.40
2017-08-08T20:11:53.643Z,41.30
2017-08-08T20:14:19.766Z,41.40
2017-08-08T20:16:45.928Z,41.50
2017-08-08T20:19:12.046Z,41.50
2017-08-08T20:21:38.220Z,41.70
2017-08-08T20:24:04.367Z,42.00
2017-08-08T20:26:30.528Z,42.40
2017-08-08T20:28:56.648Z,42.40
2017-08-08T20:31:22.782Z,42.40
2017-08-08T20:33:48.905Z,42.40
2017-08-08T20:36:15.056Z,42.20
2017-08-08T20:38:41.187Z,42.40
2017-08-08T20:41:07.360Z,42.40
2017-08-08T20:43:33.518Z,42.60
2017-08-08T20:45:59.635Z,42.90
2017-08-08T20:48:25.785Z,43.00
2017-08-08T20:50:51.915Z,43.10
2017-08-08T20:53:18.866Z,43.30
2017-08-08T20:55:44.999Z,43.30
2017-08-08T20:58:11.146Z,43.30
2017-08-08T21:00:37.295Z,43.50
2017-08-08T21:03:03.438Z,43.50
2017-08-08T21:05:29.562Z,43.60
2017-08-08T21:07:55.707Z,43.80
2017-08-08T21:10:21.833Z,43.60
2017-08-08T21:12:47.978Z,43.70
2017-08-08T21:15:14.094Z,43.70
2017-08-08T21:17:40.218Z,43.80
2017-08-08T21:20:06.359Z,44.10
2017-08-08T21:22:32.472Z,44.10
2017-08-08T21:24:58.615Z,45.50
2017-08-08T21:27:24.731Z,45.20
2017-08-08T21:29:50.858Z,46.00
2017-08-08T21:32:16.980Z,46.40
2017-08-08T21:34:43.125Z,46.40
2017-08-08T21:37:09.263Z,46.40
2017-08-08T21:39:35.410Z,46.50
2017-08-08T21:42:01.530Z,46.40
2017-08-08T21:44:27.675Z,44.90
2017-08-08T21:46:53.807Z,44.80
2017-08-08T21:49:19.954Z,44.80
2017-08-08T21:51:46.090Z,45.00
2017-08-08T21:54:12.235Z,45.50
2017-08-08T21:56:38.380Z,46.30
2017-08-08T21:59:04.516Z,46.70
2017-08-08T22:01:30.651Z,46.80
2017-08-08T22:03:56.766Z,47.30
2017-08-08T22:06:22.923Z,47.80
2017-08-08T22:08:49.047Z,47.80
2017-08-08T22:11:15.208Z,48.00
2017-08-08T22:13:41.331Z,47.80
2017-08-08T22:16:07.481Z,48.50
2017-08-08T22:18:33.608Z,49.10
2017-08-08T22:20:59.752Z,49.10
2017-08-08T22:23:25.871Z,49.40
2017-08-08T22:25:52.034Z,49.40
2017-08-08T22:28:18.164Z,49.10
2017-08-08T22:30:44.286Z,49.50
2017-08-08T22:33:10.427Z,49.50
2017-08-08T22:35:36.555Z,49.30
2017-08-08T22:38:02.695Z,49.90
2017-08-08T22:40:28.815Z,50.30
2017-08-08T22:42:54.955Z,50.40
2017-08-08T22:45:21.083Z,50.40
2017-08-08T22:47:47.222Z,50.50
2017-08-08T22:50:13.346Z,50.40
2017-08-08T22:52:39.534Z,50.30
2017-08-08T22:55:05.662Z,50.70
2017-08-08T22:57:31.785Z,50.90
2017-08-08T22:59:57.955Z,51.20
2017-08-08T23:02:24.075Z,51.40
2017-08-08T23:04:50.219Z,51.70
2017-08-08T23:07:16.343Z,51.50
2017-08-08T23:09:42.482Z,51.40
2017-08-08T23:12:08.624Z,51.30
2017-08-08T23:14:34.763Z,51.50
2017-08-08T23:17:00.886Z,51.20
2017-08-08T23:19:27.021Z,51.30
2017-08-08T23:21:53.142Z,51.30
2017-08-08T23:24:19.285Z,51.50
2017-08-08T23:26:45.392Z,51.30
2017-08-08T23:29:11.499Z,51.30
2017-08-08T23:31:37.623Z,51.70
2017-08-08T23:34:03.740Z,51.50
2017-08-08T23:36:29.878Z,51.50
2017-08-08T23:38:55.986Z,51.90
2017-08-08T23:41:22.123Z,50.30
2017-08-08T23:43:48.243Z,50.20
2017-08-08T23:46:14.399Z,50.20
2017-08-08T23:48:40.515Z,50.20
2017-08-08T23:51:06.663Z,49.50
2017-08-08T23:53:32.778Z,49.20
2017-08-08T23:55:58.915Z,49.10
2017-08-08T23:58:25.015Z,49.30
